Time;durP1;ratioP1;P1;durP2;ratioP2;P2;SDS_P1;SDS_P2;PMS_P1;PMS_P2;Temp;Humidity;BMP_temperature;BMP_pressure;BME280_temperature;BME280_humidity;BME280_pressure;Samples;Min_cycle;Max_cycle;Signal;HPM_P1;HPM_P2
2023/01/26 00:00:42;;;;;;;7.95;3.90;;;;;;;2.77;63.29;100612.91;3156270;28;20040;-71
2023/01/26 00:02:14;;;;;;;10.45;3.97;;;;;;;2.76;63.22;100603.50;3154803;28;20071;-71
2023/01/26 00:03:47;;;;;;;8.70;4.57;;;;;;;2.72;63.12;100602.59;3157314;28;20616;-71
2023/01/26 00:05:19;;;;;;;8.60;3.95;;;;;;;2.73;63.08;100605.19;3157065;28;20052;-71
2023/01/26 00:06:51;;;;;;;6.30;3.95;;;;;;;2.73;63.00;100605.19;3157680;28;20055;-71
2023/01/26 00:08:23;;;;;;;6.70;3.30;;;;;;;2.74;62.98;100606.03;3156843;28;20566;-70
2023/01/26 00:09:55;;;;;;;5.65;3.35;;;;;;;2.72;62.71;100589.75;3157019;28;20040;-71
2023/01/26 00:11:28;;;;;;;8.80;3.92;;;;;;;2.72;62.48;100589.75;3156956;28;20102;-71
2023/01/26 00:12:59;;;;;;;8.93;4.38;;;;;;;2.71;62.61;100588.03;3157120;28;20071;-71
2023/01/26 00:14:48;;;;;;;7.75;3.92;;;;;;;2.70;62.70;100576.91;3157378;28;20101;-71
2023/01/26 00:16:20;;;;;;;7.45;3.80;;;;;;;2.70;62.75;100573.47;3156724;28;20052;-70
2023/01/26 00:17:52;;;;;;;7.97;3.92;;;;;;;2.71;62.74;100572.63;3157089;28;20713;-71
2023/01/26 00:19:24;;;;;;;10.00;4.55;;;;;;;2.70;62.76;100563.19;3159549;28;20055;-72
2023/01/26 00:20:57;;;;;;;9.20;4.80;;;;;;;2.70;62.79;100558.91;3157453;28;20048;-71
2023/01/26 00:22:29;;;;;;;10.00;4.07;;;;;;;2.68;62.80;100560.59;3157017;28;20072;-71
2023/01/26 00:24:01;;;;;;;9.13;4.30;;;;;;;2.69;62.87;100558.88;3156818;28;20374;-71
2023/01/26 00:25:33;;;;;;;9.57;3.90;;;;;;;2.70;62.93;100563.19;3153432;28;20056;-71
2023/01/26 00:27:04;;;;;;;6.45;3.47;;;;;;;2.70;62.94;100555.47;3156466;28;20104;-71
2023/01/26 00:28:35;;;;;;;9.70;3.60;;;;;;;2.69;62.91;100557.19;3157252;28;20132;-71
2023/01/26 00:30:08;;;;;;;7.57;3.75;;;;;;;2.69;62.89;100564.03;3156547;28;20063;-71
2023/01/26 00:31:40;;;;;;;8.63;4.18;;;;;;;2.70;62.77;100563.19;3157368;28;20044;-71
2023/01/26 00:33:11;;;;;;;10.68;4.07;;;;;;;2.70;62.75;100558.91;3157060;28;20051;-71
2023/01/26 00:34:45;;;;;;;7.45;3.83;;;;;;;2.70;62.78;100555.47;3156288;28;20044;-72
2023/01/26 00:36:16;;;;;;;7.60;4.30;;;;;;;2.70;62.75;100555.47;3156821;28;20535;-71
2023/01/26 00:37:48;;;;;;;8.77;4.43;;;;;;;2.69;62.75;100567.50;3151736;28;20055;-71
2023/01/26 00:39:19;;;;;;;12.00;4.85;;;;;;;2.68;62.80;100555.47;3153798;28;20534;-72
2023/01/26 00:40:50;;;;;;;9.32;4.68;;;;;;;2.66;62.86;100552.06;3156914;28;20130;-72
2023/01/26 00:42:22;;;;;;;9.93;5.40;;;;;;;2.66;62.92;100552.06;3157065;28;20113;-71
2023/01/26 00:43:54;;;;;;;10.68;5.55;;;;;;;2.63;63.18;100546.03;3157288;28;20373;-71
2023/01/26 00:45:26;;;;;;;9.88;4.95;;;;;;;2.61;63.34;100551.19;3156805;28;20052;-72
2023/01/26 00:46:58;;;;;;;14.00;5.53;;;;;;;2.60;63.45;100557.19;3157031;28;20468;-72
2023/01/26 00:48:30;;;;;;;12.10;5.72;;;;;;;2.60;63.70;100566.63;3157272;28;20039;-71
2023/01/26 00:50:04;;;;;;;13.07;5.38;;;;;;;2.65;63.77;100562.34;3152814;28;20053;-71
2023/01/26 00:51:34;;;;;;;14.13;6.32;;;;;;;2.66;63.73;100557.22;3148058;28;20603;-71
2023/01/26 00:53:06;;;;;;;13.73;5.43;;;;;;;2.68;63.94;100557.19;3156973;28;20108;-71
2023/01/26 00:54:38;;;;;;;11.25;5.45;;;;;;;2.68;63.92;100552.91;3157081;28;20059;-71
2023/01/26 00:56:10;;;;;;;16.13;5.97;;;;;;;2.70;64.10;100547.75;3156686;28;20048;-71
2023/01/26 00:57:42;;;;;;;15.70;6.78;;;;;;;2.69;64.26;100546.03;3158314;28;20414;-71
2023/01/26 00:59:13;;;;;;;18.45;7.53;;;;;;;2.64;64.43;100547.78;3158875;28;20048;-71
2023/01/26 01:00:44;;;;;;;16.33;7.50;;;;;;;2.62;64.69;100547.75;3157932;28;20113;-71
2023/01/26 01:02:17;;;;;;;19.63;7.40;;;;;;;2.60;64.99;100544.31;3158138;28;20052;-71
2023/01/26 01:03:49;;;;;;;19.63;6.95;;;;;;;2.60;65.22;100557.19;3159178;28;20101;-71
2023/01/26 01:05:22;;;;;;;17.48;7.20;;;;;;;2.60;65.30;100561.47;3159352;28;20056;-71
2023/01/26 01:06:53;;;;;;;17.92;7.63;;;;;;;2.61;65.44;100545.22;3159289;28;20044;-73
2023/01/26 01:08:25;;;;;;;15.82;7.07;;;;;;;2.61;65.55;100540.06;3158845;28;20044;-71
2023/01/26 01:09:59;;;;;;;19.63;7.97;;;;;;;2.62;65.61;100545.19;3158958;28;20048;-71
2023/01/26 01:11:30;;;;;;;16.35;7.30;;;;;;;2.64;65.78;100547.78;3158713;28;20472;-71
2023/01/26 01:13:01;;;;;;;17.67;7.70;;;;;;;2.64;65.94;100537.50;3158499;28;20037;-71
2023/01/26 01:14:33;;;;;;;15.98;8.07;;;;;;;2.64;66.09;100537.50;3158788;28;20109;-71
2023/01/26 01:16:05;;;;;;;20.75;8.38;;;;;;;2.66;66.12;100538.31;3159084;28;20048;-71
2023/01/26 01:17:37;;;;;;;17.77;8.50;;;;;;;2.64;66.09;100533.19;3158890;28;20044;-71
2023/01/26 01:19:13;;;;;;;18.67;8.40;;;;;;;2.65;66.30;100532.31;3161193;28;20040;-71
2023/01/26 01:20:46;;;;;;;16.92;7.60;;;;;;;2.65;66.28;100534.91;3159057;28;20051;-71
2023/01/26 01:22:18;;;;;;;18.95;8.27;;;;;;;2.64;66.46;100528.06;3158789;28;20125;-70
2023/01/26 01:23:49;;;;;;;18.88;8.00;;;;;;;2.63;66.54;100530.59;3158791;28;20487;-71
2023/01/26 01:25:21;;;;;;;16.40;7.90;;;;;;;2.61;66.66;100525.50;3158782;28;20151;-70
2023/01/26 01:26:53;;;;;;;16.35;7.30;;;;;;;2.61;66.82;100519.50;3158790;28;20120;-70
2023/01/26 01:28:24;;;;;;;18.23;7.13;;;;;;;2.61;66.95;100522.91;3158799;28;20485;-71
2023/01/26 01:29:56;;;;;;;18.02;7.68;;;;;;;2.63;67.07;100520.31;3158407;28;20052;-72
2023/01/26 01:31:28;;;;;;;16.55;7.20;;;;;;;2.62;67.38;100523.75;3158497;28;20063;-71
2023/01/26 01:32:59;;;;;;;16.35;7.50;;;;;;;2.59;67.37;100518.63;3158604;28;20059;-71
2023/01/26 01:34:31;;;;;;;13.55;6.43;;;;;;;2.55;67.55;100514.34;3158832;28;20048;-71
2023/01/26 01:36:06;;;;;;;13.80;6.85;;;;;;;2.57;67.72;100520.34;3158552;28;20059;-71
2023/01/26 01:37:38;;;;;;;16.70;6.80;;;;;;;2.55;67.71;100520.34;3154722;28;20132;-71
2023/01/26 01:39:09;;;;;;;16.25;7.25;;;;;;;2.57;67.72;100515.19;3153982;28;20047;-71
2023/01/26 01:40:42;;;;;;;16.63;6.53;;;;;;;2.56;67.88;100514.34;3158828;28;20105;-71
2023/01/26 01:42:14;;;;;;;14.90;6.88;;;;;;;2.57;67.91;100517.75;3157819;28;20051;-71
2023/01/26 01:43:46;;;;;;;14.60;6.43;;;;;;;2.55;67.88;100515.22;3158431;28;20062;-72
2023/01/26 01:45:44;;;;;;;15.35;6.85;;;;;;;2.49;68.26;100515.22;3158580;28;20044;-71
2023/01/26 01:47:23;;;;;;;15.20;7.40;;;;;;;2.46;68.34;100515.22;3158400;28;20437;-71
2023/01/26 01:48:59;;;;;;;15.73;6.50;;;;;;;2.48;68.25;100510.91;3158662;28;20637;-71
2023/01/26 01:50:35;;;;;;;15.27;6.55;;;;;;;2.46;68.45;100505.78;3158405;28;20557;-71
2023/01/26 01:52:12;;;;;;;15.55;7.35;;;;;;;2.49;68.54;100502.38;3158606;28;20621;-71
2023/01/26 01:53:49;;;;;;;14.43;7.00;;;;;;;2.49;68.77;100504.94;3158576;28;20501;-71
2023/01/26 01:55:21;;;;;;;20.00;7.57;;;;;;;2.43;69.00;100502.38;3158538;28;20051;-71
2023/01/26 01:56:58;;;;;;;23.15;9.05;;;;;;;2.40;69.22;100499.81;3158497;28;20059;-71
2023/01/26 01:58:31;;;;;;;22.38;8.68;;;;;;;2.40;69.60;100492.09;3158529;28;20113;-70
2023/01/26 02:00:10;;;;;;;17.92;8.70;;;;;;;2.39;69.77;100486.06;3158546;28;20044;-70
2023/01/26 02:01:42;;;;;;;22.25;8.68;;;;;;;2.37;69.98;100482.66;3156087;28;20063;-70
2023/01/26 02:03:18;;;;;;;26.30;9.50;;;;;;;2.38;70.08;100480.94;3158345;28;20048;-72
2023/01/26 02:04:50;;;;;;;31.27;11.68;;;;;;;2.38;70.25;100475.81;3158503;28;20048;-70
2023/01/26 02:06:27;;;;;;;20.95;9.52;;;;;;;2.36;70.48;100474.94;3158097;28;20112;-71
2023/01/26 02:08:01;;;;;;;28.55;10.15;;;;;;;2.33;70.56;100474.94;3158595;28;20135;-70
2023/01/26 02:11:36;;;;;;;22.05;9.77;;;;;;;2.34;70.65;100480.09;3139611;28;20055;-70
2023/01/26 02:13:08;;;;;;;22.73;9.23;;;;;;;2.37;70.74;100477.53;3157912;28;20484;-71
2023/01/26 02:14:40;;;;;;;23.95;8.73;;;;;;;2.37;70.95;100477.53;3158362;28;20139;-72
2023/01/26 02:16:12;;;;;;;20.55;9.13;;;;;;;2.35;71.06;100478.38;3158277;28;20052;-72
2023/01/26 02:17:44;;;;;;;21.67;9.05;;;;;;;2.36;71.28;100474.94;3158050;28;20501;-71
2023/01/26 02:19:22;;;;;;;19.55;9.43;;;;;;;2.35;71.48;100473.25;3160281;28;20055;-72
2023/01/26 02:20:57;;;;;;;17.95;8.73;;;;;;;2.34;71.63;100471.50;3158368;28;20054;-72
2023/01/26 02:22:40;;;;;;;21.33;8.80;;;;;;;2.34;nan;100469.81;3153176;28;20067;-71
2023/01/26 02:24:22;;;;;;;22.67;9.70;;;;;;;2.32;71.85;100473.25;3158205;28;20449;-71
2023/01/26 02:26:02;;;;;;;18.98;9.32;;;;;;;2.32;71.99;100471.53;3157840;28;20056;-71
2023/01/26 02:27:34;;;;;;;19.42;9.02;;;;;;;2.31;72.10;100462.09;3156426;28;20083;-71
2023/01/26 02:29:09;;;;;;;19.77;9.07;;;;;;;2.22;72.22;100452.69;3157594;28;20919;-71
2023/01/26 02:30:40;;;;;;;19.20;8.50;;;;;;;2.33;72.23;100464.66;3158382;28;20104;-71
2023/01/26 02:32:12;;;;;;;19.98;8.90;;;;;;;2.31;72.50;100467.25;3157855;28;20052;-71
2023/01/26 02:33:43;;;;;;;18.70;8.52;;;;;;;2.26;72.56;100467.25;3157923;28;20037;-71
2023/01/26 02:35:15;;;;;;;19.30;8.90;;;;;;;2.24;72.89;100465.53;3158006;28;20048;-71
2023/01/26 02:36:57;;;;;;;22.50;10.07;;;;;;;2.22;73.04;100470.69;3157918;28;20044;-71
2023/01/26 02:38:39;;;;;;;24.05;10.30;;;;;;;2.19;73.18;100462.09;3149225;28;20048;-71
2023/01/26 02:40:16;;;;;;;21.40;8.80;;;;;;;2.17;73.33;100456.97;3157896;28;20052;-71
2023/01/26 02:43:40;;;;;;;19.52;8.77;;;;;;;2.16;73.55;100455.25;3158189;28;20036;-70
2023/01/26 02:45:15;;;;;;;21.97;9.27;;;;;;;2.13;73.71;100451.81;3157940;28;20048;-71
2023/01/26 02:46:47;;;;;;;19.85;9.15;;;;;;;2.13;73.93;100449.25;3157892;28;20308;-69
2023/01/26 02:49:45;;;;;;;21.60;9.57;;;;;;;2.15;73.92;100448.38;3157548;28;20048;-71
2023/01/26 02:50:10;;;;;;;19.83;8.90;;;;;;;2.15;73.82;100447.53;3157644;28;20047;-71
2023/01/26 02:51:41;;;;;;;19.85;9.18;;;;;;;2.19;73.89;100444.97;3157918;28;20043;-72
2023/01/26 02:53:13;;;;;;;18.23;8.80;;;;;;;2.22;73.85;100449.28;3157754;28;20132;-70
2023/01/26 02:56:39;;;;;;;21.65;9.57;;;;;;;2.20;73.98;100444.13;3157642;28;20505;-71
2023/01/26 02:58:12;;;;;;;19.67;8.82;;;;;;;2.17;74.03;100444.13;3157557;28;20677;-70
2023/01/26 02:59:43;;;;;;;20.42;9.60;;;;;;;2.15;74.03;100440.69;3157758;28;20052;-70
2023/01/26 03:01:15;;;;;;;22.67;9.60;;;;;;;2.13;74.28;100439.84;3154540;28;20560;-70
2023/01/26 03:02:47;;;;;;;22.08;9.55;;;;;;;2.11;74.32;100439.00;3157413;28;20056;-70
2023/01/26 03:04:18;;;;;;;22.38;10.15;;;;;;;2.12;74.34;100434.69;3157788;28;20075;-71
2023/01/26 03:05:50;;;;;;;25.45;10.50;;;;;;;2.14;74.18;100436.41;3157987;28;20055;-70
2023/01/26 03:07:21;;;;;;;25.65;10.25;;;;;;;2.14;74.33;100430.44;3157477;28;20059;-70
2023/01/26 03:08:53;;;;;;;23.60;10.23;;;;;;;2.15;74.35;100432.13;3157877;28;20509;-70
2023/01/26 03:10:25;;;;;;;23.75;9.35;;;;;;;2.17;74.38;100435.56;3157425;28;20528;-70
2023/01/26 03:11:56;;;;;;;16.45;8.38;;;;;;;2.18;74.55;100434.69;3157317;28;20075;-69
2023/01/26 03:13:29;;;;;;;19.90;8.30;;;;;;;2.21;74.37;100432.13;3157527;28;20055;-69
2023/01/26 03:16:51;;;;;;;22.33;9.30;;;;;;;2.21;74.33;100432.13;3157178;28;20047;-69
2023/01/26 03:27:39;;;;;;;20.50;9.65;;;;;;;2.14;74.49;100407.31;3157678;28;20044;-69
2023/01/26 03:29:11;;;;;;;22.90;9.48;;;;;;;2.12;74.41;100411.56;3157517;28;20063;-71
2023/01/26 03:30:43;;;;;;;20.90;9.85;;;;;;;2.10;74.35;100419.31;3157614;28;20464;-69
2023/01/26 03:32:15;;;;;;;18.80;8.77;;;;;;;2.11;74.42;100415.88;3157116;28;20442;-70
2023/01/26 03:33:46;;;;;;;18.25;8.70;;;;;;;2.11;74.36;100403.00;3157149;28;20048;-69
2023/01/26 03:35:21;;;;;;;20.73;9.18;;;;;;;2.11;74.38;100403.00;3157501;28;20056;-69
2023/01/26 03:36:52;;;;;;;20.40;9.43;;;;;;;2.12;74.29;100396.16;3157078;28;20558;-70
2023/01/26 03:38:24;;;;;;;18.70;9.07;;;;;;;2.13;74.41;100397.84;3148544;28;20139;-70
2023/01/26 03:56:23;;;;;;;22.20;9.13;;;;;;;2.04;74.76;100370.47;3157557;28;20048;-72
2023/01/26 03:57:55;;;;;;;18.98;9.05;;;;;;;2.03;74.77;100367.03;3157508;28;20117;-71
2023/01/26 03:59:37;;;;;;;20.67;10.05;;;;;;;2.01;74.89;100363.66;3157102;28;20517;-72
2023/01/26 04:01:17;;;;;;;15.93;7.93;;;;;;;1.98;74.80;100358.50;3154417;28;20052;-72
2023/01/26 04:08:20;;;;;;;18.88;8.32;;;;;;;1.89;74.73;100355.06;3152745;28;20048;-71
2023/01/26 04:09:52;;;;;;;19.27;8.45;;;;;;;1.89;74.66;100350.78;3157275;28;20044;-70
2023/01/26 04:11:23;;;;;;;21.38;9.05;;;;;;;1.89;74.37;100357.63;3157065;28;20585;-72
2023/01/26 04:22:03;;;;;;;20.25;7.78;;;;;;;1.85;74.21;100358.50;3157061;28;20060;-71
2023/01/26 04:23:36;;;;;;;14.48;7.15;;;;;;;1.85;74.33;100354.22;3157095;28;20051;-71
2023/01/26 04:25:08;;;;;;;16.52;7.40;;;;;;;1.83;74.15;100343.09;3157257;28;20052;-71
2023/01/26 04:26:41;;;;;;;16.45;7.57;;;;;;;1.86;74.18;100349.94;3157294;28;20513;-71
2023/01/26 04:28:13;;;;;;;16.27;7.70;;;;;;;1.86;74.10;100342.25;3156849;28;20105;-71
2023/01/26 04:29:45;;;;;;;15.90;7.70;;;;;;;1.86;74.20;100342.25;3157103;28;20052;-71
2023/01/26 04:31:17;;;;;;;18.10;8.27;;;;;;;1.87;74.06;100339.69;3156882;28;20059;-71
2023/01/26 04:32:51;;;;;;;17.70;8.27;;;;;;;1.87;74.16;100346.53;3158649;28;20055;-71
2023/01/26 04:34:21;;;;;;;17.85;7.88;;;;;;;1.86;74.21;100337.94;3159347;28;20418;-71
2023/01/26 04:35:53;;;;;;;18.90;7.28;;;;;;;1.87;74.10;100333.69;3159312;28;20093;-71
2023/01/26 04:37:25;;;;;;;15.63;6.85;;;;;;;1.85;74.13;100333.69;3157461;28;20048;-71
2023/01/26 04:38:56;;;;;;;17.10;7.88;;;;;;;1.85;74.12;100328.53;3158087;28;20433;-71
2023/01/26 04:40:28;;;;;;;20.77;8.07;;;;;;;1.85;73.89;100328.53;3159237;28;20052;-70
2023/01/26 04:42:00;;;;;;;20.92;8.23;;;;;;;1.86;74.00;100334.53;3159545;28;20044;-70
2023/01/26 04:43:32;;;;;;;18.05;7.75;;;;;;;1.84;73.97;100326.84;3159273;28;20109;-70
2023/01/26 04:45:04;;;;;;;21.90;9.18;;;;;;;1.86;73.82;100326.81;3159235;28;20040;-70
2023/01/26 04:46:36;;;;;;;21.17;9.27;;;;;;;1.85;73.97;100331.13;3159373;28;20521;-70
2023/01/26 04:48:09;;;;;;;21.75;8.15;;;;;;;1.86;73.87;100329.41;3159356;28;20081;-71
2023/01/26 04:49:41;;;;;;;16.80;7.85;;;;;;;1.83;73.72;100322.53;3159073;28;20113;-71
2023/01/26 04:51:14;;;;;;;19.10;7.40;;;;;;;1.81;73.79;100322.56;3159297;28;20582;-70
2023/01/26 04:52:46;;;;;;;19.60;7.78;;;;;;;1.78;73.57;100326.84;3159008;28;20509;-71
2023/01/26 04:54:18;;;;;;;17.48;8.15;;;;;;;1.78;73.58;100332.84;3159464;28;20066;-71
2023/01/26 04:55:50;;;;;;;19.55;7.80;;;;;;;1.76;73.41;100333.69;3159208;28;20058;-70
2023/01/26 04:57:23;;;;;;;18.50;8.65;;;;;;;1.76;73.36;100334.53;3159007;28;20048;-70
2023/01/26 04:58:56;;;;;;;20.52;7.70;;;;;;;1.76;73.35;100333.69;3159202;28;20100;-70
2023/01/26 05:00:27;;;;;;;23.13;8.77;;;;;;;1.75;73.38;100342.25;3159360;28;20048;-71
2023/01/26 05:01:59;;;;;;;19.33;8.43;;;;;;;1.73;73.22;100342.25;3156230;28;20124;-71
2023/01/26 05:03:32;;;;;;;20.75;9.13;;;;;;;1.74;73.42;100343.94;3159155;28;20052;-71
2023/01/26 05:05:04;;;;;;;20.83;9.57;;;;;;;1.76;73.32;100343.97;3159233;28;20076;-71
2023/01/26 05:06:37;;;;;;;26.10;9.97;;;;;;;1.74;73.38;100341.38;3159072;28;20047;-71
2023/01/26 05:08:08;;;;;;;26.87;10.33;;;;;;;1.74;73.54;100337.97;3151154;28;20383;-71
2023/01/26 05:09:40;;;;;;;22.65;9.70;;;;;;;1.76;73.58;100331.97;3152261;28;20578;-71
2023/01/26 05:11:12;;;;;;;21.75;9.27;;;;;;;1.77;73.52;100340.53;3158866;28;20552;-71
2023/01/26 05:12:43;;;;;;;24.75;11.27;;;;;;;1.77;73.55;100333.69;3158972;28;20448;-71
2023/01/26 05:14:15;;;;;;;25.02;10.18;;;;;;;1.76;73.66;100334.53;3158777;28;20036;-70
2023/01/26 05:15:46;;;;;;;23.88;10.07;;;;;;;1.77;73.73;100337.97;3158009;28;20512;-70
2023/01/26 05:17:18;;;;;;;27.85;11.23;;;;;;;1.75;73.74;100332.84;3158586;28;20059;-70
2023/01/26 05:18:51;;;;;;;29.77;11.77;;;;;;;1.75;73.78;100330.28;3158691;28;20047;-71
2023/01/26 05:20:23;;;;;;;29.27;11.15;;;;;;;1.77;73.89;100327.69;3158658;28;20044;-70
2023/01/26 05:21:55;;;;;;;23.92;10.50;;;;;;;1.77;73.88;100335.41;3158917;28;20051;-71
2023/01/26 05:23:27;;;;;;;20.83;9.05;;;;;;;1.77;73.81;100327.69;3158017;28;20052;-70
2023/01/26 05:24:58;;;;;;;18.13;7.97;;;;;;;1.75;73.70;100324.28;3158898;28;20113;-69
2023/01/26 05:26:30;;;;;;;16.92;7.90;;;;;;;1.73;73.64;100323.44;3158170;28;20498;-70
2023/01/26 05:28:02;;;;;;;20.35;9.23;;;;;;;1.67;73.86;100310.59;3158614;28;20102;-71
2023/01/26 05:29:34;;;;;;;18.42;8.02;;;;;;;1.72;73.95;100317.44;3160768;28;20052;-70
2023/01/26 05:31:05;;;;;;;15.95;7.78;;;;;;;1.66;73.90;100306.34;3158688;28;20429;-71
2023/01/26 05:32:37;;;;;;;16.20;8.00;;;;;;;1.67;74.12;100308.03;3158924;28;20070;-73
2023/01/26 05:34:10;;;;;;;20.45;7.63;;;;;;;1.66;74.33;100302.03;3158527;28;20651;-71
2023/01/26 05:35:42;;;;;;;21.73;8.73;;;;;;;1.65;74.48;100307.16;3152944;28;20110;-71
2023/01/26 05:37:18;;;;;;;28.15;10.60;;;;;;;1.64;74.63;100306.31;3154689;28;20055;-70
2023/01/26 05:38:50;;;;;;;28.02;12.10;;;;;;;1.67;74.74;100306.31;3150880;28;20492;-70
2023/01/26 05:40:22;;;;;;;30.05;14.60;;;;;;;1.68;74.42;100300.31;3158347;28;20052;-72
2023/01/26 05:41:54;;;;;;;21.40;10.18;;;;;;;1.76;74.58;100308.88;3158431;28;20048;-71
2023/01/26 05:43:26;;;;;;;19.88;8.05;;;;;;;1.78;74.68;100302.03;3158286;28;20393;-71
2023/01/26 05:44:58;;;;;;;15.63;7.43;;;;;;;1.83;74.57;100304.56;3158496;28;20116;-71
2023/01/26 05:46:30;;;;;;;17.55;7.70;;;;;;;1.84;74.34;100308.03;3158582;28;20098;-74
2023/01/26 05:48:02;;;;;;;16.20;8.15;;;;;;;1.78;74.29;100296.03;3157839;28;20043;-77
2023/01/26 05:49:37;;;;;;;19.95;8.65;;;;;;;1.85;74.20;100299.44;3145744;28;20045;-74
2023/01/26 05:51:09;;;;;;;20.38;8.07;;;;;;;1.85;74.17;100305.44;3158776;28;20505;-71
2023/01/26 05:52:42;;;;;;;20.20;9.10;;;;;;;1.87;74.23;100302.88;3158716;28;20234;-72
2023/01/26 05:54:14;;;;;;;17.02;7.90;;;;;;;1.84;74.19;100302.88;3158050;28;20044;-68
2023/01/26 05:55:45;;;;;;;17.77;8.07;;;;;;;1.84;74.32;100303.72;3158226;28;20444;-69
2023/01/26 05:57:17;;;;;;;16.58;7.00;;;;;;;1.82;74.28;100301.16;3158363;28;20055;-71
2023/01/26 05:58:49;;;;;;;13.52;7.10;;;;;;;1.82;74.29;100303.72;3158248;28;20055;-67
2023/01/26 06:00:22;;;;;;;15.73;7.40;;;;;;;1.85;74.31;100299.44;3158394;28;20113;-70
2023/01/26 06:01:53;;;;;;;19.70;7.97;;;;;;;1.84;74.25;100303.72;3154589;28;20126;-68
2023/01/26 06:03:24;;;;;;;16.20;7.55;;;;;;;1.85;74.06;100302.00;3158498;28;20589;-69
2023/01/26 06:04:58;;;;;;;17.08;7.95;;;;;;;1.84;74.10;100302.88;3158165;28;20048;-69
2023/01/26 06:06:30;;;;;;;19.65;8.90;;;;;;;1.84;74.14;100300.31;3157939;28;20060;-72
2023/01/26 06:08:01;;;;;;;18.55;7.30;;;;;;;1.78;74.03;100288.34;3157752;28;20405;-72
2023/01/26 06:09:33;;;;;;;16.02;6.53;;;;;;;1.80;74.00;100296.88;3157691;28;20192;-69
2023/01/26 06:11:05;;;;;;;18.48;7.43;;;;;;;1.83;73.98;100294.28;3156616;28;20044;-74
2023/01/26 06:12:38;;;;;;;23.95;9.25;;;;;;;1.85;73.84;100289.19;3147859;28;20129;-69
2023/01/26 06:14:10;;;;;;;21.27;10.27;;;;;;;1.84;73.78;100285.75;3157407;28;20497;-71
2023/01/26 06:15:41;;;;;;;26.00;13.38;;;;;;;1.80;73.76;100291.75;3158066;28;20109;-68
2023/01/26 06:17:13;;;;;;;23.48;11.82;;;;;;;1.81;73.84;100285.75;3157300;28;20109;-70
2023/01/26 06:18:48;;;;;;;25.45;11.68;;;;;;;1.81;73.82;100288.34;3150707;28;20509;-70
2023/01/26 06:20:21;;;;;;;25.02;11.35;;;;;;;1.80;73.93;100284.03;3149038;28;20040;-70
2023/01/26 06:21:53;;;;;;;16.98;8.68;;;;;;;1.76;74.07;100278.06;3157871;28;20413;-70
2023/01/26 06:23:25;;;;;;;21.02;8.98;;;;;;;1.80;74.20;100291.75;3155689;28;20048;-70
2023/01/26 06:24:57;;;;;;;19.73;9.23;;;;;;;1.80;74.20;100299.44;3147025;28;20048;-71
2023/01/26 06:26:29;;;;;;;15.48;8.23;;;;;;;1.76;74.21;100283.19;3155402;28;20135;-70
2023/01/26 06:28:02;;;;;;;16.08;7.97;;;;;;;1.86;74.23;100301.16;3158047;28;20127;-69
2023/01/26 06:29:33;;;;;;;16.48;7.60;;;;;;;1.86;74.19;100296.00;3158298;28;20054;-67
2023/01/26 06:31:07;;;;;;;16.27;7.05;;;;;;;1.87;74.42;100296.03;3158018;28;20052;-69
2023/01/26 06:32:39;;;;;;;17.75;7.13;;;;;;;1.88;74.23;100297.72;3157827;28;20450;-68
2023/01/26 06:34:11;;;;;;;18.58;8.65;;;;;;;1.88;74.26;100297.72;3157921;28;20056;-68
2023/01/26 06:35:45;;;;;;;23.52;10.35;;;;;;;1.90;74.31;100296.00;3157746;28;20079;-69
2023/01/26 06:37:16;;;;;;;23.35;10.07;;;;;;;1.91;74.31;100297.72;3156145;28;20068;-67
2023/01/26 06:38:51;;;;;;;64.97;29.13;;;;;;;1.95;74.27;100290.84;3150128;28;20040;-68
2023/01/26 06:40:22;;;;;;;24.33;11.80;;;;;;;1.98;74.26;100294.28;3157799;28;20052;-68
2023/01/26 06:41:54;;;;;;;43.75;17.63;;;;;;;2.02;74.10;100285.72;3157771;28;20413;-68
2023/01/26 06:43:26;;;;;;;25.00;10.98;;;;;;;2.03;74.00;100282.28;3157855;28;20051;-67
2023/01/26 06:44:58;;;;;;;21.90;10.05;;;;;;;2.07;74.03;100284.84;3157864;28;20434;-67
2023/01/26 06:46:30;;;;;;;16.63;8.95;;;;;;;2.08;74.00;100286.56;3157869;28;20056;-68
2023/01/26 06:48:02;;;;;;;21.17;9.52;;;;;;;2.05;73.83;100275.44;3157721;28;20056;-68
2023/01/26 06:49:34;;;;;;;17.55;8.68;;;;;;;2.00;73.97;100271.16;3157495;28;20055;-68
2023/01/26 06:51:44;;;;;;;23.77;10.80;;;;;;;2.01;74.02;100273.75;3145395;28;20509;-69
2023/01/26 06:53:29;;;;;;;20.30;8.75;;;;;;;2.00;74.14;100278.88;3149262;28;20052;-70
2023/01/26 06:55:03;;;;;;;17.40;8.23;;;;;;;1.92;74.27;100257.47;3157312;28;20660;-69
2023/01/26 06:56:35;;;;;;;22.40;9.20;;;;;;;1.99;74.27;100264.31;3157852;28;20123;-69
2023/01/26 06:58:07;;;;;;;20.52;8.57;;;;;;;2.00;74.25;100272.00;3157871;28;20044;-69
2023/01/26 06:59:39;;;;;;;43.30;16.30;;;;;;;2.04;74.23;100271.16;3157446;28;20051;-70
2023/01/26 07:01:14;;;;;;;27.88;11.65;;;;;;;2.05;74.04;100272.84;3155046;28;20052;-70
2023/01/26 07:02:46;;;;;;;20.30;8.77;;;;;;;2.02;73.86;100264.31;3157551;28;20109;-70
2023/01/26 07:04:18;;;;;;;17.33;7.50;;;;;;;2.02;73.79;100269.44;3157456;28;20101;-70
2023/01/26 07:05:50;;;;;;;64.05;22.75;;;;;;;2.03;73.67;100271.16;3157630;28;20426;-69
2023/01/26 07:07:23;;;;;;;20.40;8.38;;;;;;;1.98;73.52;100262.59;3156413;28;20051;-68
2023/01/26 07:08:55;;;;;;;10.48;5.45;;;;;;;2.02;73.19;100269.44;3157706;28;20051;-66
2023/01/26 07:10:27;;;;;;;14.32;6.50;;;;;;;1.99;72.97;100265.16;3156926;28;20047;-66
2023/01/26 07:11:59;;;;;;;17.52;8.50;;;;;;;2.00;72.77;100261.72;3156875;28;20078;-66
2023/01/26 07:13:31;;;;;;;15.73;6.68;;;;;;;2.03;72.63;100258.31;3157052;28;20047;-70
2023/01/26 07:15:04;;;;;;;15.85;7.68;;;;;;;2.05;72.50;100254.03;3157434;28;20500;-68
2023/01/26 07:16:35;;;;;;;14.20;7.63;;;;;;;2.07;72.45;100256.56;3157503;28;20105;-70
2023/01/26 07:18:08;;;;;;;23.42;11.25;;;;;;;2.08;72.36;100242.88;3157120;28;20447;-72
2023/01/26 07:19:39;;;;;;;17.25;8.40;;;;;;;2.08;72.47;100251.44;3156672;28;20048;-71
2023/01/26 07:21:14;;;;;;;47.42;18.25;;;;;;;2.10;72.41;100249.72;3147004;28;20842;-68
2023/01/26 07:22:48;;;;;;;40.10;18.02;;;;;;;2.11;72.46;100245.44;3147865;28;20062;-73
2023/01/26 07:24:21;;;;;;;27.98;11.52;;;;;;;2.13;72.54;100243.69;3147031;28;20121;-71
2023/01/26 07:26:08;;;;;;;27.15;12.45;;;;;;;2.13;72.44;100246.28;3147807;28;20086;-70
2023/01/26 07:27:40;;;;;;;20.70;9.07;;;;;;;2.12;72.47;100245.44;3124976;28;20615;-73
2023/01/26 07:29:12;;;;;;;21.45;10.10;;;;;;;2.15;72.76;100242.00;3138781;28;20509;-79
2023/01/26 07:30:44;;;;;;;18.80;10.10;;;;;;;2.18;72.78;100239.41;3151662;28;20056;-73
2023/01/26 07:32:16;;;;;;;22.48;10.82;;;;;;;2.19;72.76;100236.84;3151540;28;20663;-70
2023/01/26 07:33:48;;;;;;;19.73;9.88;;;;;;;2.19;72.78;100238.53;3152063;28;20126;-69
2023/01/26 07:35:22;;;;;;;29.52;11.98;;;;;;;2.21;72.79;100234.25;3151962;28;20178;-71
2023/01/26 07:36:54;;;;;;;16.92;8.05;;;;;;;2.22;72.66;100236.84;3151889;28;20134;-70
2023/01/26 07:38:28;;;;;;;13.80;7.28;;;;;;;2.19;72.78;100235.97;3151682;28;20052;-74
2023/01/26 07:40:00;;;;;;;22.67;10.45;;;;;;;2.12;72.86;100224.88;3154131;28;20110;-70
2023/01/26 07:41:34;;;;;;;21.75;10.90;;;;;;;2.12;72.97;100237.72;3156054;28;20063;-72
2023/01/26 07:43:06;;;;;;;;;;;;;;;2.05;73.07;100236.91;3158105;28;20106;-71
2023/01/26 07:44:38;;;;;;;22.42;9.68;;;;;;;2.02;73.53;100228.34;3145198;28;19920;-73
2023/01/26 07:46:11;;;;;;;21.40;9.32;;;;;;;2.03;73.52;100225.75;3156450;28;20051;-72
2023/01/26 07:47:42;;;;;;;23.42;10.50;;;;;;;2.05;73.58;100230.91;3156789;28;20539;-74
2023/01/26 07:49:14;;;;;;;19.35;9.15;;;;;;;2.03;73.77;100230.91;3156587;28;20052;-70
2023/01/26 07:51:09;;;;;;;18.38;8.38;;;;;;;2.01;73.97;100230.06;3156528;28;20056;-73
2023/01/26 07:52:42;;;;;;;15.90;7.97;;;;;;;1.98;74.05;100231.75;3155528;28;20060;-72
2023/01/26 07:54:48;;;;;;;16.77;7.78;;;;;;;1.95;74.42;100230.09;3156889;28;20048;-71
2023/01/26 07:56:20;;;;;;;15.88;6.80;;;;;;;1.92;74.58;100232.63;3154814;28;20438;-72
2023/01/26 07:58:13;;;;;;;15.93;8.35;;;;;;;1.93;74.81;100236.09;3156558;28;20056;-70
2023/01/26 07:59:53;;;;;;;19.10;7.35;;;;;;;1.92;74.88;100232.63;3150231;28;20044;-73
2023/01/26 08:01:25;;;;;;;14.90;7.57;;;;;;;1.93;75.35;100228.38;3153683;28;20059;-69